createdAt,value
2022-08-14T00:01:11.632Z,18.29
2022-08-14T00:03:40.725Z,18.19
2022-08-14T00:06:14.089Z,18.04
2022-08-14T00:08:59.365Z,18.02
2022-08-14T00:11:28.883Z,18.05
2022-08-14T00:14:01.949Z,18.05
2022-08-14T00:16:41.711Z,18.05
2022-08-14T00:19:19.820Z,18.03
2022-08-14T00:21:50.002Z,18.02
2022-08-14T00:24:28.479Z,17.97
2022-08-14T00:27:02.159Z,17.92
2022-08-14T00:29:32.913Z,17.90
2022-08-14T00:32:50.248Z,17.84
2022-08-14T00:34:53.922Z,17.84
2022-08-14T00:37:20.821Z,17.86
2022-08-14T00:39:47.540Z,17.78
2022-08-14T00:42:52.748Z,17.75
2022-08-14T00:45:09.567Z,17.75
2022-08-14T00:47:44.647Z,17.72
2022-08-14T00:50:18.024Z,17.56
2022-08-14T00:52:50.921Z,17.42
2022-08-14T00:55:18.680Z,17.41
2022-08-14T00:57:45.850Z,17.36
2022-08-14T01:00:34.472Z,17.32
2022-08-14T01:03:01.955Z,17.33
2022-08-14T01:05:50.959Z,17.43
2022-08-14T01:08:52.394Z,17.49
2022-08-14T01:11:18.845Z,17.58
2022-08-14T01:13:45.978Z,17.56
2022-08-14T01:16:28.024Z,17.59
2022-08-14T01:19:16.050Z,17.62
2022-08-14T01:21:46.944Z,17.69
2022-08-14T01:24:28.899Z,17.66
2022-08-14T01:27:00.618Z,17.71
2022-08-14T01:29:42.115Z,17.85
2022-08-14T01:32:22.907Z,18.00
2022-08-14T01:35:21.072Z,18.05
2022-08-14T01:37:54.772Z,18.02
2022-08-14T01:40:36.802Z,18.06
2022-08-14T01:43:18.917Z,18.02
2022-08-14T01:45:57.686Z,18.08
2022-08-14T01:48:33.588Z,18.09
2022-08-14T01:51:04.590Z,18.11
2022-08-14T01:53:47.971Z,18.07
2022-08-14T01:56:22.956Z,17.99
2022-08-14T01:58:58.065Z,17.82
2022-08-14T02:01:26.664Z,17.74
2022-08-14T02:03:53.591Z,17.76
2022-08-14T02:06:32.249Z,17.58
2022-08-14T02:09:02.832Z,17.38
2022-08-14T02:11:36.988Z,17.16
2022-08-14T02:14:14.201Z,16.98
2022-08-14T02:16:43.338Z,16.98
2022-08-14T02:19:15.327Z,16.98
2022-08-14T02:21:49.060Z,17.03
2022-08-14T02:24:39.185Z,16.97
2022-08-14T02:28:24.682Z,16.86
2022-08-14T02:30:01.217Z,16.75
2022-08-14T02:32:37.227Z,16.58
2022-08-14T02:35:13.960Z,16.56
2022-08-14T02:37:46.983Z,16.61
2022-08-14T02:40:15.636Z,16.59
2022-08-14T02:42:54.104Z,16.59
2022-08-14T02:45:22.068Z,16.65
2022-08-14T02:47:49.648Z,16.62
2022-08-14T02:50:26.975Z,16.61
2022-08-14T02:52:57.460Z,16.64
2022-08-14T02:55:31.076Z,16.60
2022-08-14T02:58:02.982Z,16.68
2022-08-14T03:00:33.080Z,16.67
2022-08-14T03:03:01.564Z,16.62
2022-08-14T03:05:32.998Z,16.56
2022-08-14T03:08:15.936Z,16.50
2022-08-14T03:10:49.396Z,16.47
2022-08-14T03:13:21.249Z,16.46
2022-08-14T03:15:56.002Z,16.48
2022-08-14T03:18:31.273Z,16.47
2022-08-14T03:21:04.646Z,16.55
2022-08-14T03:23:37.742Z,16.58
2022-08-14T03:26:18.506Z,16.54
2022-08-14T03:28:57.213Z,16.54
2022-08-14T03:31:29.408Z,16.48
2022-08-14T03:33:59.911Z,16.52
2022-08-14T03:37:38.906Z,16.49
2022-08-14T03:39:22.159Z,16.48
2022-08-14T03:41:53.025Z,16.48
2022-08-14T03:45:19.788Z,16.48
2022-08-14T03:47:06.707Z,16.44
2022-08-14T03:49:34.916Z,16.41
2022-08-14T03:52:17.822Z,16.38
2022-08-14T03:54:54.101Z,16.32
2022-08-14T03:57:22.701Z,16.30
2022-08-14T03:59:50.577Z,16.30
2022-08-14T04:02:33.188Z,16.28
2022-08-14T04:05:12.728Z,16.37
2022-08-14T04:07:50.027Z,16.39
2022-08-14T04:10:32.216Z,16.36
2022-08-14T04:13:03.222Z,16.30
2022-08-14T04:15:30.995Z,16.19
2022-08-14T04:17:58.917Z,16.18
2022-08-14T04:20:27.312Z,16.10
2022-08-14T04:22:54.784Z,16.09
2022-08-14T04:25:22.482Z,16.12
2022-08-14T04:28:02.392Z,16.13
2022-08-14T04:30:32.799Z,16.12
2022-08-14T04:33:06.386Z,16.15
2022-08-14T04:35:55.970Z,16.18
2022-08-14T04:38:41.790Z,16.20
2022-08-14T04:41:30.347Z,15.96
2022-08-14T04:43:57.254Z,15.79
2022-08-14T04:46:56.518Z,15.72
2022-08-14T04:49:11.597Z,15.68
2022-08-14T04:51:46.703Z,15.64
2022-08-14T04:54:20.054Z,15.56
2022-08-14T04:56:46.651Z,15.54
2022-08-14T04:59:13.415Z,15.56
2022-08-14T05:01:47.783Z,15.61
2022-08-14T05:04:16.260Z,15.65
2022-08-14T05:06:46.422Z,15.74
2022-08-14T05:09:15.735Z,15.73
2022-08-14T05:11:44.360Z,15.74
2022-08-14T05:14:33.041Z,15.80
2022-08-14T05:17:01.590Z,15.90
2022-08-14T05:19:29.470Z,15.98
2022-08-14T05:22:15.748Z,16.04
2022-08-14T05:24:44.693Z,16.20
2022-08-14T05:27:11.352Z,16.23
2022-08-14T05:29:37.885Z,16.26
2022-08-14T05:32:07.664Z,16.30
2022-08-14T05:34:34.422Z,16.30
2022-08-14T05:37:03.283Z,16.30
2022-08-14T05:39:31.686Z,16.34
2022-08-14T05:41:59.025Z,16.39
2022-08-14T05:44:30.263Z,16.53
2022-08-14T05:46:58.958Z,16.69
2022-08-14T05:49:33.154Z,16.89
2022-08-14T05:52:02.220Z,17.08
2022-08-14T05:54:35.763Z,17.32
2022-08-14T05:57:04.583Z,17.50
2022-08-14T05:59:39.280Z,17.66
2022-08-14T06:02:11.116Z,18.02
2022-08-14T06:04:39.079Z,18.37
2022-08-14T06:07:06.299Z,18.68
2022-08-14T06:09:36.011Z,18.98
2022-08-14T06:12:11.806Z,19.31
2022-08-14T06:14:39.279Z,19.62
2022-08-14T06:17:06.538Z,19.93
2022-08-14T06:19:33.087Z,20.19
2022-08-14T06:21:59.835Z,20.49
2022-08-14T06:24:27.172Z,20.74
2022-08-14T06:27:04.782Z,20.91
2022-08-14T06:29:34.722Z,21.14
2022-08-14T06:32:37.670Z,21.27
2022-08-14T06:35:02.225Z,21.43
2022-08-14T06:37:41.400Z,21.68
2022-08-14T06:40:26.031Z,21.75
2022-08-14T06:42:56.647Z,21.74
2022-08-14T06:45:26.970Z,22.04
2022-08-14T06:47:54.715Z,22.23
2022-08-14T06:50:27.964Z,22.36
2022-08-14T06:52:55.809Z,22.55
2022-08-14T06:55:26.107Z,22.81
2022-08-14T06:57:55.426Z,22.80
2022-08-14T07:00:27.465Z,22.56
2022-08-14T07:03:16.850Z,22.74
2022-08-14T07:05:57.715Z,22.83
2022-08-14T07:08:31.283Z,22.97
2022-08-14T07:11:00.642Z,23.33
2022-08-14T07:13:28.541Z,23.14
2022-08-14T07:15:58.425Z,23.33
2022-08-14T07:18:27.341Z,23.38
2022-08-14T07:20:55.194Z,23.14
2022-08-14T07:23:24.178Z,23.13
2022-08-14T07:25:55.488Z,23.29
2022-08-14T07:28:35.840Z,23.48
2022-08-14T07:31:11.405Z,23.48
2022-08-14T07:33:45.616Z,23.74
2022-08-14T07:36:27.465Z,23.99
2022-08-14T07:38:58.080Z,24.23
2022-08-14T07:41:24.649Z,24.30
2022-08-14T07:43:58.831Z,24.48
2022-08-14T07:46:29.138Z,24.68
2022-08-14T07:48:58.053Z,24.57
2022-08-14T07:51:24.699Z,24.72
2022-08-14T07:53:57.162Z,24.84
2022-08-14T07:56:46.900Z,24.98
2022-08-14T07:59:11.590Z,24.51
2022-08-14T08:01:39.614Z,24.50
2022-08-14T08:04:16.794Z,24.43
2022-08-14T08:06:45.613Z,24.53
2022-08-14T08:09:12.346Z,24.99
2022-08-14T08:11:42.157Z,25.30
2022-08-14T08:14:17.299Z,25.58
2022-08-14T08:16:50.961Z,26.04
2022-08-14T08:19:19.543Z,26.32
2022-08-14T08:21:47.658Z,26.61
2022-08-14T08:24:18.305Z,26.83
2022-08-14T08:26:46.774Z,26.96
2022-08-14T08:29:22.417Z,26.90
2022-08-14T08:31:55.493Z,26.60
2022-08-14T08:34:24.203Z,26.71
2022-08-14T08:36:51.611Z,26.64
2022-08-14T08:39:22.406Z,26.75
2022-08-14T08:41:50.737Z,26.94
2022-08-14T08:44:32.318Z,26.89
2022-08-14T08:47:06.502Z,26.26
2022-08-14T08:49:43.115Z,26.32
2022-08-14T08:52:25.304Z,26.05
2022-08-14T08:58:45.491Z,26.46
2022-08-14T09:01:15.653Z,26.30
2022-08-14T09:03:44.135Z,26.46
2022-08-14T09:07:00.591Z,26.09
2022-08-14T09:08:57.501Z,26.43
2022-08-14T09:11:24.343Z,26.71
2022-08-14T09:13:52.099Z,26.97
2022-08-14T09:16:25.047Z,27.14
2022-08-14T09:18:53.532Z,27.21
2022-08-14T09:21:21.124Z,27.32
2022-08-14T09:24:26.771Z,27.54
2022-08-14T09:30:31.590Z,27.02
2022-08-14T09:33:12.495Z,27.09
2022-08-14T09:35:45.838Z,27.23
2022-08-14T09:38:43.680Z,27.15
2022-08-14T09:42:17.445Z,27.71
2022-08-14T09:44:39.085Z,28.60
2022-08-14T09:47:10.643Z,28.91
2022-08-14T09:49:42.823Z,28.86
2022-08-14T09:52:33.594Z,28.64
2022-08-14T09:55:01.259Z,29.61
2022-08-14T09:57:31.353Z,31.19
2022-08-14T09:59:58.433Z,31.51
2022-08-14T10:02:31.236Z,31.82
2022-08-14T10:05:01.186Z,30.54
2022-08-14T10:07:36.159Z,30.85
2022-08-14T10:10:23.156Z,32.10
2022-08-14T10:12:54.868Z,34.51
2022-08-14T10:15:27.855Z,35.99
2022-08-14T10:18:09.493Z,35.18
2022-08-14T10:20:58.087Z,34.35
2022-08-14T10:23:27.873Z,34.57
2022-08-14T10:26:08.020Z,36.25
2022-08-14T10:29:17.658Z,37.38
2022-08-14T10:31:40.227Z,38.54
2022-08-14T10:34:13.972Z,38.07
2022-08-14T10:36:47.734Z,38.18
2022-08-14T10:39:20.682Z,37.24
2022-08-14T10:41:49.268Z,37.83
2022-08-14T10:44:24.964Z,36.43
2022-08-14T10:47:40.162Z,37.11
2022-08-14T10:49:56.944Z,34.78
2022-08-14T10:52:26.425Z,34.29
2022-08-14T10:55:07.677Z,32.88
2022-08-14T10:57:36.524Z,32.49
2022-08-14T11:00:14.317Z,32.51
2022-08-14T11:03:01.754Z,34.20
2022-08-14T11:05:48.825Z,34.21
2022-08-14T11:08:31.337Z,33.71
2022-08-14T11:11:01.534Z,33.43
2022-08-14T11:13:30.657Z,34.80
2022-08-14T11:16:02.132Z,36.09
2022-08-14T11:18:36.112Z,36.82
2022-08-14T11:21:08.428Z,38.81
2022-08-14T11:23:41.347Z,38.33
2022-08-14T11:26:11.352Z,37.35
2022-08-14T11:28:48.092Z,38.64
2022-08-14T11:31:20.424Z,39.82
2022-08-14T11:33:57.901Z,41.77
2022-08-14T11:37:02.059Z,39.71
2022-08-14T11:39:33.979Z,37.55
2022-08-14T11:42:55.302Z,34.56
2022-08-14T11:45:04.454Z,35.36
2022-08-14T11:47:43.879Z,35.95
2022-08-14T11:50:35.975Z,36.60
2022-08-14T11:53:06.839Z,37.02
2022-08-14T11:55:36.268Z,39.01
2022-08-14T11:58:09.489Z,38.76
2022-08-14T12:01:02.647Z,37.41
2022-08-14T12:03:46.919Z,35.68
2022-08-14T12:06:29.592Z,35.24
2022-08-14T12:09:08.526Z,35.31
2022-08-14T12:11:44.295Z,36.84
2022-08-14T12:14:30.417Z,40.39
2022-08-14T12:17:12.613Z,41.78
2022-08-14T12:19:56.779Z,40.51
2022-08-14T12:22:37.147Z,42.12
2022-08-14T12:25:11.415Z,41.60
2022-08-14T12:27:54.532Z,39.75
2022-08-14T12:30:39.605Z,37.13
2022-08-14T12:33:33.034Z,35.73
2022-08-14T12:36:06.992Z,37.96
2022-08-14T12:38:38.500Z,38.82
2022-08-14T12:41:11.339Z,37.78
2022-08-14T12:43:51.709Z,38.22
2022-08-14T12:46:27.429Z,40.96
2022-08-14T12:48:59.153Z,40.65
2022-08-14T12:51:27.697Z,38.97
2022-08-14T12:53:59.212Z,35.34
2022-08-14T12:56:33.824Z,34.86
2022-08-14T12:59:02.523Z,34.81
2022-08-14T13:01:31.866Z,33.25
2022-08-14T13:04:18.837Z,36.46
2022-08-14T13:06:50.651Z,40.17
2022-08-14T13:09:19.219Z,41.33
2022-08-14T13:11:59.028Z,37.02
2022-08-14T13:14:38.539Z,35.87
2022-08-14T13:17:05.287Z,35.71
2022-08-14T13:19:35.243Z,34.43
2022-08-14T13:22:09.732Z,33.14
2022-08-14T13:24:39.416Z,31.23
2022-08-14T13:27:09.827Z,30.65
2022-08-14T13:29:40.956Z,31.11
2022-08-14T13:32:13.940Z,32.67
2022-08-14T13:34:43.648Z,32.49
2022-08-14T13:37:14.438Z,32.21
2022-08-14T13:39:47.342Z,32.13
2022-08-14T13:42:23.510Z,31.39
2022-08-14T13:44:53.287Z,30.38
2022-08-14T13:47:21.517Z,30.35
2022-08-14T13:49:56.838Z,30.43
2022-08-14T13:52:51.988Z,30.54
2022-08-14T13:55:14.032Z,30.34
2022-08-14T13:57:49.570Z,29.82
2022-08-14T14:00:32.632Z,29.49
2022-08-14T14:03:08.059Z,29.62
2022-08-14T14:05:53.106Z,29.97
2022-08-14T14:08:46.411Z,29.87
2022-08-14T14:11:16.613Z,29.64
2022-08-14T14:13:48.564Z,29.61
2022-08-14T14:16:21.871Z,29.39
2022-08-14T14:19:06.810Z,29.33
2022-08-14T14:21:36.502Z,29.43
2022-08-14T14:24:04.766Z,29.53
2022-08-14T14:26:33.094Z,29.55
2022-08-14T14:29:00.683Z,29.51
2022-08-14T14:31:30.220Z,29.67
2022-08-14T14:34:29.347Z,29.59
2022-08-14T14:37:02.915Z,29.62
2022-08-14T14:39:31.184Z,29.81
2022-08-14T14:42:06.435Z,29.93
2022-08-14T14:44:35.195Z,30.28
2022-08-14T14:47:02.047Z,30.43
2022-08-14T14:49:41.987Z,30.68
2022-08-14T14:52:26.618Z,30.88
2022-08-14T14:54:59.468Z,30.90
2022-08-14T14:57:35.097Z,30.95
2022-08-14T15:00:08.686Z,31.01
2022-08-14T15:02:42.188Z,31.03
2022-08-14T15:05:10.026Z,31.07
2022-08-14T15:07:37.889Z,31.00
2022-08-14T15:10:06.868Z,31.22
2022-08-14T15:12:56.105Z,31.02
2022-08-14T15:15:23.795Z,31.07
2022-08-14T15:17:50.614Z,31.06
2022-08-14T15:20:30.145Z,31.03
2022-08-14T15:23:00.772Z,30.71
2022-08-14T15:25:29.990Z,30.88
2022-08-14T15:27:58.504Z,30.71
2022-08-14T15:30:32.437Z,30.68
2022-08-14T15:32:59.614Z,30.24
2022-08-14T15:35:29.568Z,29.76
2022-08-14T15:37:56.473Z,29.46
2022-08-14T15:40:23.946Z,29.30
2022-08-14T15:42:50.849Z,29.30
2022-08-14T15:45:19.000Z,29.24
2022-08-14T15:47:45.612Z,28.97
2022-08-14T15:50:13.036Z,28.86
2022-08-14T15:52:41.451Z,28.93
2022-08-14T15:55:14.457Z,29.07
2022-08-14T15:58:02.343Z,29.17
2022-08-14T16:00:49.393Z,29.27
2022-08-14T16:03:27.648Z,29.31
2022-08-14T16:06:11.175Z,29.28
2022-08-14T16:08:44.070Z,29.20
2022-08-14T16:11:11.456Z,29.09
2022-08-14T16:13:43.020Z,28.92
2022-08-14T16:16:34.493Z,28.86
2022-08-14T16:18:59.113Z,28.55
2022-08-14T16:21:31.554Z,28.37
2022-08-14T16:24:00.518Z,28.18
2022-08-14T16:26:29.859Z,28.09
2022-08-14T16:29:07.557Z,28.03
2022-08-14T16:31:38.116Z,28.01
2022-08-14T16:34:45.031Z,28.04
2022-08-14T16:36:53.390Z,28.07
2022-08-14T16:39:21.435Z,28.06
2022-08-14T16:41:51.209Z,28.05
2022-08-14T16:44:21.953Z,28.07
2022-08-14T16:47:04.256Z,28.00
2022-08-14T16:50:03.313Z,27.99
2022-08-14T16:52:25.963Z,27.97
2022-08-14T16:55:11.062Z,28.00
2022-08-14T16:57:58.763Z,28.21
2022-08-14T17:00:32.600Z,28.21
2022-08-14T17:03:08.670Z,28.20
2022-08-14T17:05:41.559Z,28.17
2022-08-14T17:08:31.812Z,28.05
2022-08-14T17:11:04.775Z,27.96
2022-08-14T17:13:58.678Z,27.82
2022-08-14T17:16:35.779Z,27.85
2022-08-14T17:19:05.630Z,27.79
2022-08-14T17:21:40.970Z,27.70
2022-08-14T17:24:58.197Z,27.71
2022-08-14T17:27:00.112Z,27.66
2022-08-14T17:29:44.821Z,27.58
2022-08-14T17:32:29.392Z,27.51
2022-08-14T17:35:10.024Z,27.44
2022-08-14T17:40:30.675Z,27.30
2022-08-14T17:43:02.026Z,27.20
2022-08-14T17:45:41.123Z,27.09
2022-08-14T17:49:16.094Z,27.00
2022-08-14T17:51:12.309Z,26.88
2022-08-14T17:53:39.187Z,26.75
2022-08-14T17:56:20.502Z,26.64
2022-08-14T17:58:49.552Z,26.68
2022-08-14T18:01:17.118Z,26.65
2022-08-14T18:03:53.717Z,26.56
2022-08-14T18:06:39.552Z,26.36
2022-08-14T18:09:25.977Z,26.10
2022-08-14T18:12:03.679Z,25.92
2022-08-14T18:14:32.139Z,25.75
2022-08-14T18:17:00.310Z,25.67
2022-08-14T18:19:29.523Z,25.51
2022-08-14T18:21:58.752Z,25.45
2022-08-14T18:24:29.434Z,25.38
2022-08-14T18:27:15.026Z,25.31
2022-08-14T18:29:55.581Z,25.18
2022-08-14T18:32:31.478Z,25.03
2022-08-14T18:35:11.472Z,24.91
2022-08-14T18:37:41.155Z,24.73
2022-08-14T18:40:17.692Z,24.60
2022-08-14T18:43:03.719Z,24.40
2022-08-14T18:45:41.333Z,24.28
2022-08-14T18:48:17.576Z,24.17
2022-08-14T18:50:53.043Z,24.11
2022-08-14T18:53:24.926Z,23.93
2022-08-14T18:55:54.754Z,23.73
2022-08-14T18:58:31.004Z,23.59
2022-08-14T19:01:02.136Z,23.49
2022-08-14T19:03:33.690Z,23.41
2022-08-14T19:06:04.502Z,23.30
2022-08-14T19:08:49.979Z,23.16
2022-08-14T19:11:32.400Z,23.00
2022-08-14T19:13:59.602Z,22.86
2022-08-14T19:16:36.741Z,22.72
2022-08-14T19:19:08.513Z,22.61
2022-08-14T19:21:39.990Z,22.51
2022-08-14T19:24:27.354Z,22.40
2022-08-14T19:27:16.492Z,22.30
2022-08-14T19:29:47.828Z,22.18
2022-08-14T19:32:39.459Z,22.07
2022-08-14T19:35:49.889Z,21.92
2022-08-14T19:38:53.175Z,21.86
2022-08-14T19:41:39.292Z,21.79
2022-08-14T19:44:19.613Z,21.75
2022-08-14T19:47:01.131Z,21.69
2022-08-14T19:50:07.705Z,21.50
2022-08-14T19:52:24.311Z,21.43
2022-08-14T19:54:51.524Z,21.45
2022-08-14T19:57:29.416Z,21.46
2022-08-14T20:00:28.093Z,21.42
2022-08-14T20:03:11.875Z,21.32
2022-08-14T20:05:45.580Z,21.21
2022-08-14T20:10:59.870Z,21.17
2022-08-14T20:11:11.125Z,21.10
2022-08-14T20:13:46.911Z,21.05
2022-08-14T20:16:21.163Z,21.04
2022-08-14T20:19:08.915Z,20.96
2022-08-14T20:21:37.174Z,20.83
2022-08-14T20:24:41.417Z,20.62
2022-08-14T20:27:39.512Z,20.52
2022-08-14T20:30:34.184Z,20.37
2022-08-14T20:33:11.014Z,20.27
2022-08-14T20:35:44.134Z,20.25
2022-08-14T20:38:30.604Z,20.29
2022-08-14T20:41:09.660Z,20.21
2022-08-14T20:44:01.053Z,20.30
2022-08-14T20:46:38.668Z,20.43
2022-08-14T20:49:06.233Z,20.36
2022-08-14T20:51:54.632Z,20.19
2022-08-14T20:54:34.082Z,20.06
2022-08-14T20:57:12.018Z,20.02
2022-08-14T20:59:46.994Z,20.06
2022-08-14T21:02:46.635Z,19.96
2022-08-14T21:05:19.608Z,19.89
2022-08-14T21:07:50.214Z,19.91
2022-08-14T21:10:33.717Z,20.01
2022-08-14T21:13:26.045Z,20.05
2022-08-14T21:15:56.850Z,20.06
2022-08-14T21:18:24.394Z,20.02
2022-08-14T21:20:56.202Z,20.03
2022-08-14T21:23:23.200Z,19.96
2022-08-14T21:25:49.821Z,19.86
2022-08-14T21:28:30.091Z,19.82
2022-08-14T21:30:58.005Z,19.75
2022-08-14T21:33:25.648Z,19.60
2022-08-14T21:35:55.019Z,19.59
2022-08-14T21:38:33.882Z,19.59
2022-08-14T21:41:43.555Z,19.56
2022-08-14T21:44:17.582Z,19.56
2022-08-14T21:46:54.028Z,19.59
2022-08-14T21:49:38.271Z,19.63
2022-08-14T21:52:52.257Z,19.57
2022-08-14T21:55:09.887Z,19.50
2022-08-14T21:58:04.118Z,19.44
2022-08-14T22:00:42.395Z,19.41
2022-08-14T22:03:13.836Z,19.39
2022-08-14T22:05:41.418Z,19.25
2022-08-14T22:08:12.474Z,19.15
2022-08-14T22:10:42.506Z,19.11
2022-08-14T22:13:11.719Z,19.02
2022-08-14T22:15:43.801Z,18.97
2022-08-14T22:18:20.408Z,19.01
2022-08-14T22:20:48.478Z,18.95
2022-08-14T22:23:21.818Z,18.99
2022-08-14T22:25:50.079Z,19.01
2022-08-14T22:28:20.550Z,19.01
2022-08-14T22:30:48.070Z,18.90
2022-08-14T22:33:26.580Z,18.75
2022-08-14T22:35:58.046Z,18.59
2022-08-14T22:38:37.206Z,18.52
2022-08-14T22:41:29.179Z,18.52
2022-08-14T22:43:54.684Z,18.62
2022-08-14T22:46:21.682Z,18.63
2022-08-14T22:48:49.253Z,18.61
2022-08-14T22:51:17.903Z,18.69
2022-08-14T22:53:46.235Z,18.67
2022-08-14T22:56:20.161Z,18.65
2022-08-14T22:58:49.932Z,18.60
2022-08-14T23:01:58.712Z,18.66
2022-08-14T23:04:34.794Z,18.67
2022-08-14T23:07:22.936Z,18.71
2022-08-14T23:10:32.190Z,18.62
2022-08-14T23:12:54.525Z,18.60
2022-08-14T23:15:23.632Z,18.61
2022-08-14T23:17:51.043Z,18.59
2022-08-14T23:20:20.239Z,18.58
2022-08-14T23:22:51.525Z,18.49
2022-08-14T23:25:20.051Z,18.51
2022-08-14T23:28:06.862Z,18.47
2022-08-14T23:30:55.250Z,18.50
2022-08-14T23:33:22.031Z,18.49
2022-08-14T23:35:58.658Z,18.50
2022-08-14T23:38:30.805Z,18.53
2022-08-14T23:41:00.811Z,18.55
2022-08-14T23:43:28.310Z,18.58
2022-08-14T23:45:58.599Z,18.54
2022-08-14T23:48:28.157Z,18.54
2022-08-14T23:50:55.237Z,18.55
2022-08-14T23:53:28.496Z,18.61
2022-08-14T23:56:15.223Z,18.58
2022-08-14T23:58:49.243Z,18.49
